createdAt,value
2023-03-04T00:00:07.276Z,0.60
2023-03-04T00:02:34.097Z,0.60
2023-03-04T00:05:01.028Z,0.60
2023-03-04T00:07:27.721Z,0.60
2023-03-04T00:09:54.506Z,0.60
2023-03-04T00:12:21.352Z,0.50
2023-03-04T00:14:48.085Z,0.50
2023-03-04T00:17:14.813Z,0.50
2023-03-04T00:19:41.597Z,0.40
2023-03-04T00:22:08.398Z,0.50
2023-03-04T00:24:35.225Z,0.40
2023-03-04T00:27:02.080Z,0.40
2023-03-04T00:29:28.916Z,0.40
2023-03-04T00:31:55.772Z,0.40
2023-03-04T00:34:22.642Z,0.30
2023-03-04T00:36:49.439Z,0.30
2023-03-04T00:39:16.478Z,0.30
2023-03-04T00:41:43.440Z,0.30
2023-03-04T00:44:10.497Z,0.30
2023-03-04T00:46:37.283Z,0.30
2023-03-04T00:49:04.140Z,0.30
2023-03-04T00:51:30.892Z,-0.90
2023-03-04T00:53:59.722Z,0.20
2023-03-04T00:56:27.982Z,0.20
2023-03-04T00:58:55.073Z,0.20
2023-03-04T01:01:21.941Z,0.10
2023-03-04T01:03:48.874Z,0.10
2023-03-04T01:06:15.773Z,0.10
2023-03-04T01:08:43.332Z,0.10
2023-03-04T01:11:10.269Z,0.10
2023-03-04T01:13:37.079Z,0.10
2023-03-04T01:16:05.068Z,0.10
2023-03-04T01:18:32.490Z,0.60
2023-03-04T01:20:59.813Z,0.00
2023-03-04T01:23:26.524Z,0.00
2023-03-04T01:25:53.370Z,0.10
2023-03-04T01:28:20.136Z,0.00
2023-03-04T01:30:47.089Z,0.00
2023-03-04T01:33:14.961Z,0.00
2023-03-04T01:35:41.810Z,0.00
2023-03-04T01:38:08.691Z,0.00
2023-03-04T01:40:35.518Z,0.00
2023-03-04T01:43:02.341Z,0.00
2023-03-04T01:45:29.977Z,0.00
2023-03-04T01:47:56.671Z,0.00
2023-03-04T01:50:35.596Z,0.00
2023-03-04T01:53:03.344Z,-0.10
2023-03-04T01:55:31.544Z,-0.20
2023-03-04T01:57:58.520Z,-0.30
2023-03-04T02:00:30.873Z,-0.30
2023-03-04T02:03:07.889Z,-0.30
2023-03-04T02:05:36.724Z,-0.30
2023-03-04T02:08:04.417Z,-0.40
2023-03-04T02:10:32.005Z,-0.40
2023-03-04T02:13:00.648Z,-0.40
2023-03-04T02:15:28.191Z,-0.40
2023-03-04T02:17:55.025Z,-0.40
2023-03-04T02:20:45.114Z,-0.40
2023-03-04T02:23:49.791Z,-0.40
2023-03-04T02:26:21.990Z,-0.40
2023-03-04T02:28:50.929Z,-0.40
2023-03-04T02:31:25.782Z,-0.40
2023-03-04T02:33:54.593Z,-0.40
2023-03-04T02:36:21.962Z,-0.50
2023-03-04T02:38:50.522Z,-0.50
2023-03-04T02:41:24.926Z,-0.50
2023-03-04T02:43:54.091Z,-0.50
2023-03-04T02:46:21.051Z,-0.50
2023-03-04T02:48:47.984Z,-0.50
2023-03-04T02:51:14.781Z,-0.50
2023-03-04T02:53:41.572Z,-0.50
2023-03-04T02:56:08.880Z,-0.60
2023-03-04T02:58:35.799Z,-0.50
2023-03-04T03:01:02.578Z,-0.50
2023-03-04T03:03:29.293Z,-0.60
2023-03-04T03:05:56.270Z,-0.60
2023-03-04T03:08:24.393Z,-0.70
2023-03-04T03:10:51.187Z,-0.70
2023-03-04T03:13:18.618Z,-0.80
2023-03-04T03:15:45.499Z,-0.80
2023-03-04T03:18:12.605Z,-0.80
2023-03-04T03:20:39.490Z,-0.80
2023-03-04T03:23:06.207Z,-0.80
2023-03-04T03:25:33.196Z,-0.90
2023-03-04T03:27:59.995Z,-0.90
2023-03-04T03:30:26.843Z,-0.90
2023-03-04T03:32:53.707Z,-0.90
2023-03-04T03:35:20.535Z,-0.90
2023-03-04T03:37:49.037Z,-0.90
2023-03-04T03:40:15.875Z,-0.90
2023-03-04T03:42:42.807Z,-1.00
2023-03-04T03:45:10.137Z,-0.90
2023-03-04T03:47:36.979Z,-1.00
2023-03-04T03:50:04.554Z,-1.00
2023-03-04T03:52:31.344Z,-1.00
2023-03-04T03:55:00.056Z,-1.10
2023-03-04T03:57:29.555Z,-1.10
2023-03-04T03:59:56.836Z,-1.10
2023-03-04T04:02:23.732Z,-1.20
2023-03-04T04:04:50.773Z,-1.20
2023-03-04T04:07:17.657Z,-1.30
2023-03-04T04:09:44.603Z,-1.50
2023-03-04T04:12:14.632Z,-1.30
2023-03-04T04:14:41.617Z,-1.30
2023-03-04T04:17:08.668Z,-1.20
2023-03-04T04:19:35.576Z,-1.30
2023-03-04T04:22:03.553Z,-1.20
2023-03-04T04:24:30.314Z,-1.30
2023-03-04T04:26:58.013Z,-1.30
2023-03-04T04:29:24.715Z,-1.30
2023-03-04T04:31:51.858Z,-1.30
2023-03-04T04:34:18.638Z,-1.30
2023-03-04T04:36:45.511Z,-1.30
2023-03-04T04:39:12.300Z,-1.30
2023-03-04T04:41:43.363Z,-1.30
2023-03-04T04:44:11.480Z,-1.30
2023-03-04T04:46:39.237Z,-1.40
2023-03-04T04:49:07.417Z,-1.40
2023-03-04T04:51:35.650Z,-1.40
2023-03-04T04:54:03.629Z,-1.40
2023-03-04T04:56:30.675Z,-1.40
2023-03-04T04:58:59.504Z,-1.40
2023-03-04T05:01:27.060Z,-1.50
2023-03-04T05:03:55.273Z,-1.50
2023-03-04T05:06:24.141Z,-1.50
2023-03-04T05:08:51.587Z,-1.50
2023-03-04T05:11:19.568Z,-1.50
2023-03-04T05:13:47.308Z,-1.60
2023-03-04T05:16:14.548Z,-1.60
2023-03-04T05:18:41.626Z,-1.60
2023-03-04T05:21:08.943Z,-1.60
2023-03-04T05:23:38.851Z,-1.70
2023-03-04T05:26:07.224Z,-1.70
2023-03-04T05:28:34.414Z,-1.70
2023-03-04T05:31:01.783Z,-1.70
2023-03-04T05:33:28.951Z,-1.80
2023-03-04T05:35:55.869Z,-1.80
2023-03-04T05:38:23.025Z,-1.80
2023-03-04T05:40:49.935Z,-1.80
2023-03-04T05:43:17.334Z,-1.80
2023-03-04T05:45:44.216Z,-1.90
2023-03-04T05:48:11.365Z,-1.90
2023-03-04T05:50:38.185Z,-2.00
2023-03-04T05:53:04.915Z,-2.00
2023-03-04T05:55:31.655Z,-2.00
2023-03-04T05:57:58.695Z,-2.00
2023-03-04T06:00:26.325Z,-2.00
2023-03-04T06:02:53.355Z,-2.10
2023-03-04T06:05:20.728Z,-2.10
2023-03-04T06:07:47.708Z,-2.00
2023-03-04T06:10:17.596Z,-2.10
2023-03-04T06:12:44.576Z,-2.20
2023-03-04T06:15:12.031Z,-2.10
2023-03-04T06:17:42.025Z,-2.10
2023-03-04T06:20:10.484Z,-2.10
2023-03-04T06:22:37.299Z,-2.00
2023-03-04T06:25:04.232Z,-2.00
2023-03-04T06:27:31.066Z,-1.90
2023-03-04T06:29:58.073Z,-1.90
2023-03-04T06:32:24.958Z,-1.90
2023-03-04T06:34:51.696Z,-1.90
2023-03-04T06:37:18.741Z,-1.80
2023-03-04T06:39:45.883Z,-1.60
2023-03-04T06:42:13.306Z,-1.30
2023-03-04T06:44:40.203Z,-1.20
2023-03-04T06:47:08.344Z,-1.20
2023-03-04T06:49:35.090Z,-1.20
2023-03-04T06:52:02.025Z,-1.10
2023-03-04T06:54:28.832Z,-1.20
2023-03-04T06:56:55.546Z,-1.10
2023-03-04T06:59:22.344Z,-1.10
2023-03-04T07:01:49.071Z,-1.00
2023-03-04T07:04:15.988Z,-0.70
2023-03-04T07:06:42.854Z,-0.60
2023-03-04T07:09:09.750Z,-0.40
2023-03-04T07:11:36.629Z,-0.10
2023-03-04T07:14:03.427Z,0.20
2023-03-04T07:16:30.450Z,0.50
2023-03-04T07:18:57.311Z,0.80
2023-03-04T07:21:24.212Z,1.10
2023-03-04T07:23:51.013Z,1.40
2023-03-04T07:26:18.295Z,1.60
2023-03-04T07:28:45.086Z,1.80
2023-03-04T07:31:29.500Z,2.00
2023-03-04T07:33:59.153Z,2.20
2023-03-04T07:36:26.683Z,2.70
2023-03-04T07:38:57.453Z,3.00
2023-03-04T07:41:25.945Z,3.40
2023-03-04T07:43:52.716Z,3.70
2023-03-04T07:46:20.011Z,3.90
2023-03-04T07:48:46.925Z,4.10
2023-03-04T07:51:25.094Z,4.20
2023-03-04T07:53:55.697Z,4.40
2023-03-04T07:56:26.314Z,4.60
2023-03-04T07:58:53.582Z,4.90
2023-03-04T08:01:23.873Z,5.20
2023-03-04T08:03:50.680Z,5.50
2023-03-04T08:06:19.791Z,5.80
2023-03-04T08:08:47.620Z,6.00
2023-03-04T08:11:20.631Z,6.20
2023-03-04T08:13:47.839Z,6.40
2023-03-04T08:16:17.509Z,6.50
2023-03-04T08:18:45.827Z,6.70
2023-03-04T08:21:13.806Z,6.80
2023-03-04T08:23:42.550Z,6.90
2023-03-04T08:26:11.715Z,6.90
2023-03-04T08:28:38.936Z,7.00
2023-03-04T08:31:05.931Z,7.10
2023-03-04T08:33:33.613Z,7.30
2023-03-04T08:36:00.626Z,7.20
2023-03-04T08:38:27.395Z,7.10
2023-03-04T08:40:56.281Z,7.10
2023-03-04T08:43:24.811Z,7.10
2023-03-04T08:45:53.462Z,7.10
2023-03-04T08:48:20.753Z,7.10
2023-03-04T08:50:49.212Z,6.90
2023-03-04T08:53:17.640Z,6.70
2023-03-04T08:55:44.786Z,6.50
2023-03-04T08:58:11.866Z,6.10
2023-03-04T09:00:43.017Z,5.30
2023-03-04T09:03:12.542Z,4.70
2023-03-04T09:05:39.447Z,4.40
2023-03-04T09:08:06.955Z,4.10
2023-03-04T09:10:34.243Z,3.80
2023-03-04T09:13:01.765Z,3.60
2023-03-04T09:15:28.606Z,3.50
2023-03-04T09:17:55.355Z,3.40
2023-03-04T09:20:23.241Z,3.40
2023-03-04T09:22:50.428Z,3.30
2023-03-04T09:25:17.257Z,3.20
2023-03-04T09:27:44.341Z,3.20
2023-03-04T09:30:11.912Z,3.00
2023-03-04T09:32:39.079Z,3.10
2023-03-04T09:35:06.522Z,3.20
2023-03-04T09:37:33.666Z,3.30
2023-03-04T09:40:00.420Z,3.30
2023-03-04T09:42:47.595Z,3.30
2023-03-04T09:45:20.161Z,3.30
2023-03-04T09:47:49.185Z,3.40
2023-03-04T09:50:17.252Z,3.40
2023-03-04T09:53:02.354Z,3.50
2023-03-04T09:55:39.351Z,3.40
2023-03-04T09:58:33.320Z,3.40
2023-03-04T10:01:17.110Z,3.40
2023-03-04T10:03:48.908Z,3.20
2023-03-04T10:06:21.601Z,3.20
2023-03-04T10:09:03.096Z,3.20
2023-03-04T10:11:39.293Z,3.40
2023-03-04T10:14:21.697Z,3.40
2023-03-04T10:17:04.307Z,3.50
2023-03-04T10:19:37.233Z,3.60
2023-03-04T10:22:35.640Z,3.60
2023-03-04T10:25:32.309Z,3.70
2023-03-04T10:28:15.703Z,3.70
2023-03-04T10:30:45.495Z,3.60
2023-03-04T10:33:14.416Z,3.60
2023-03-04T10:35:44.089Z,3.80
2023-03-04T10:38:13.491Z,3.80
2023-03-04T10:40:42.774Z,3.90
2023-03-04T10:43:21.459Z,4.00
2023-03-04T10:45:49.142Z,4.20
2023-03-04T10:48:27.842Z,4.20
2023-03-04T10:51:10.465Z,4.20
2023-03-04T10:53:43.097Z,4.20
2023-03-04T10:57:02.664Z,4.20
2023-03-04T10:59:53.593Z,4.30
2023-03-04T11:02:24.105Z,4.50
2023-03-04T11:05:14.799Z,4.50
2023-03-04T11:07:55.035Z,4.50
2023-03-04T11:10:38.786Z,4.50
2023-03-04T11:13:11.521Z,4.60
2023-03-04T11:15:58.787Z,4.70
2023-03-04T11:18:40.609Z,4.90
2023-03-04T11:21:13.842Z,4.90
2023-03-04T11:23:50.045Z,4.80
2023-03-04T11:26:21.247Z,4.70
2023-03-04T11:29:05.693Z,4.70
2023-03-04T11:31:43.026Z,4.90
2023-03-04T11:34:14.851Z,5.10
2023-03-04T11:37:00.027Z,5.20
2023-03-04T11:39:35.799Z,5.30
2023-03-04T11:42:17.275Z,5.30
2023-03-04T11:44:44.255Z,5.30
2023-03-04T11:47:22.016Z,5.30
2023-03-04T11:50:00.826Z,5.30
2023-03-04T11:52:36.589Z,5.40
2023-03-04T11:55:09.420Z,5.50
2023-03-04T11:58:01.349Z,5.70
2023-03-04T12:00:39.947Z,5.80
2023-03-04T12:03:18.498Z,5.70
2023-03-04T12:06:13.542Z,5.70
2023-03-04T12:08:59.364Z,5.60
2023-03-04T12:11:44.382Z,5.60
2023-03-04T12:14:41.283Z,5.60
2023-03-04T12:17:49.184Z,5.70
2023-03-04T12:20:19.037Z,5.80
2023-03-04T12:22:59.223Z,5.90
2023-03-04T12:25:50.891Z,6.10
2023-03-04T12:28:31.805Z,6.20
2023-03-04T12:31:01.396Z,6.30
2023-03-04T12:33:49.557Z,6.40
2023-03-04T12:36:24.109Z,6.50
2023-03-04T12:39:05.502Z,6.50
2023-03-04T12:42:09.524Z,6.50
2023-03-04T12:44:47.670Z,6.50
2023-03-04T12:47:24.318Z,6.50
2023-03-04T12:49:59.871Z,6.50
2023-03-04T12:52:37.330Z,6.60
2023-03-04T12:55:10.862Z,6.70
2023-03-04T12:57:38.398Z,6.80
2023-03-04T13:00:33.716Z,6.80
2023-03-04T13:03:08.322Z,6.80
2023-03-04T13:06:04.285Z,6.60
2023-03-04T13:08:47.096Z,6.50
2023-03-04T13:11:26.263Z,6.50
2023-03-04T13:14:03.171Z,6.50
2023-03-04T13:16:38.853Z,6.50
2023-03-04T13:19:43.787Z,6.40
2023-03-04T13:22:29.685Z,6.40
2023-03-04T13:24:58.218Z,6.40
2023-03-04T13:27:48.925Z,6.30
2023-03-04T13:30:35.695Z,6.30
2023-03-04T13:33:08.604Z,6.40
2023-03-04T13:35:50.471Z,6.60
2023-03-04T13:38:34.124Z,6.70
2023-03-04T13:41:14.693Z,6.60
2023-03-04T13:43:42.922Z,6.80
2023-03-04T13:46:18.925Z,6.80
2023-03-04T13:48:51.900Z,6.80
2023-03-04T13:51:29.711Z,6.60
2023-03-04T13:53:59.732Z,6.70
2023-03-04T13:56:39.671Z,6.60
2023-03-04T13:59:28.375Z,6.50
2023-03-04T14:01:59.841Z,6.40
2023-03-04T14:04:29.400Z,6.30
2023-03-04T14:06:58.930Z,6.30
2023-03-04T14:09:31.722Z,6.20
2023-03-04T14:12:02.656Z,6.10
2023-03-04T14:15:06.648Z,6.10
2023-03-04T14:17:37.271Z,5.90
2023-03-04T14:20:21.670Z,5.90
2023-03-04T14:22:48.668Z,6.00
2023-03-04T14:25:21.269Z,6.00
2023-03-04T14:27:48.342Z,6.00
2023-03-04T14:30:40.757Z,6.00
2023-03-04T14:33:18.047Z,5.80
2023-03-04T14:35:50.154Z,5.70
2023-03-04T14:38:38.548Z,5.70
2023-03-04T14:41:12.325Z,5.90
2023-03-04T14:44:03.886Z,5.90
2023-03-04T14:46:36.604Z,5.90
2023-03-04T14:49:04.425Z,5.80
2023-03-04T14:51:41.572Z,5.70
2023-03-04T14:54:25.013Z,5.60
2023-03-04T14:56:51.810Z,5.60
2023-03-04T14:59:27.368Z,5.60
2023-03-04T15:01:54.140Z,5.50
2023-03-04T15:04:21.137Z,6.60
2023-03-04T15:06:53.567Z,5.20
2023-03-04T15:09:26.928Z,5.10
2023-03-04T15:12:01.992Z,4.90
2023-03-04T15:14:45.774Z,4.70
2023-03-04T15:17:38.395Z,4.60
2023-03-04T15:20:10.998Z,4.50
2023-03-04T15:22:40.784Z,4.50
2023-03-04T15:25:12.080Z,4.40
2023-03-04T15:27:38.844Z,4.30
2023-03-04T15:30:14.862Z,4.30
2023-03-04T15:32:41.712Z,4.30
2023-03-04T15:35:16.783Z,4.30
2023-03-04T15:37:45.208Z,4.30
2023-03-04T15:40:17.922Z,4.30
2023-03-04T15:42:44.850Z,4.30
2023-03-04T15:45:24.009Z,4.30
2023-03-04T15:47:50.819Z,4.40
2023-03-04T15:50:19.154Z,4.30
2023-03-04T15:52:46.453Z,4.20
2023-03-04T15:55:21.330Z,4.10
2023-03-04T15:57:52.236Z,4.00
2023-03-04T16:00:19.772Z,3.90
2023-03-04T16:02:47.517Z,3.90
2023-03-04T16:05:15.735Z,3.80
2023-03-04T16:07:48.351Z,3.90
2023-03-04T16:10:22.641Z,4.10
2023-03-04T16:12:50.125Z,4.00
2023-03-04T16:15:19.815Z,3.90
2023-03-04T16:17:50.816Z,3.80
2023-03-04T16:20:22.927Z,3.70
2023-03-04T16:22:56.241Z,3.60
2023-03-04T16:25:24.823Z,3.50
2023-03-04T16:27:53.387Z,3.40
2023-03-04T16:30:23.295Z,3.30
2023-03-04T16:32:50.223Z,3.30
2023-03-04T16:35:18.446Z,3.20
2023-03-04T16:37:45.984Z,3.20
2023-03-04T16:40:19.116Z,3.10
2023-03-04T16:42:46.114Z,3.00
2023-03-04T16:45:21.680Z,2.90
2023-03-04T16:47:48.818Z,2.80
2023-03-04T16:50:19.797Z,2.80
2023-03-04T16:52:48.761Z,2.70
2023-03-04T16:55:21.715Z,2.70
2023-03-04T16:57:49.011Z,2.60
2023-03-04T17:00:19.145Z,2.50
2023-03-04T17:02:56.470Z,2.50
2023-03-04T17:05:25.579Z,2.30
2023-03-04T17:07:52.430Z,2.30
2023-03-04T17:10:19.482Z,2.20
2023-03-04T17:12:46.287Z,2.20
2023-03-04T17:15:14.901Z,2.20
2023-03-04T17:17:42.665Z,2.10
2023-03-04T17:20:18.149Z,1.90
2023-03-04T17:22:45.326Z,2.00
2023-03-04T17:25:13.388Z,1.90
2023-03-04T17:27:40.776Z,1.80
2023-03-04T17:30:11.526Z,1.60
2023-03-04T17:32:39.968Z,1.50
2023-03-04T17:35:08.384Z,1.40
2023-03-04T17:37:35.927Z,1.30
2023-03-04T17:40:05.637Z,1.20
2023-03-04T17:42:32.971Z,1.10
2023-03-04T17:44:59.812Z,0.90
2023-03-04T17:47:27.782Z,0.80
2023-03-04T17:49:54.521Z,0.70
2023-03-04T17:52:21.532Z,0.60
2023-03-04T17:54:48.462Z,0.50
2023-03-04T17:57:15.483Z,0.50
2023-03-04T17:59:42.619Z,0.30
2023-03-04T18:02:14.595Z,0.30
2023-03-04T18:04:42.691Z,0.30
2023-03-04T18:07:09.561Z,0.20
2023-03-04T18:09:36.400Z,0.20
2023-03-04T18:12:03.411Z,0.10
2023-03-04T18:14:30.274Z,0.10
2023-03-04T18:16:57.330Z,0.10
2023-03-04T18:19:24.119Z,0.00
2023-03-04T18:21:50.846Z,-0.10
2023-03-04T18:24:17.676Z,-0.20
2023-03-04T18:26:44.686Z,-0.30
2023-03-04T18:29:11.663Z,-0.20
2023-03-04T18:31:38.602Z,-0.20
2023-03-04T18:34:05.813Z,-0.20
2023-03-04T18:36:33.603Z,-0.20
2023-03-04T18:39:02.217Z,-0.20
2023-03-04T18:41:28.952Z,-0.10
2023-03-04T18:43:56.062Z,-0.20
2023-03-04T18:46:28.054Z,-0.20
2023-03-04T18:49:00.390Z,-0.20
2023-03-04T18:51:27.126Z,-0.20
2023-03-04T18:53:53.931Z,-0.20
2023-03-04T18:56:37.482Z,-0.20
2023-03-04T18:59:13.215Z,-0.20
2023-03-04T19:01:40.444Z,-0.10
2023-03-04T19:04:07.557Z,-0.10
2023-03-04T19:06:35.022Z,-0.10
2023-03-04T19:09:02.282Z,-0.10
2023-03-04T19:11:31.489Z,-0.20
2023-03-04T19:13:58.457Z,-0.10
2023-03-04T19:16:25.624Z,-0.10
2023-03-04T19:18:53.545Z,-0.10
2023-03-04T19:21:20.647Z,0.00
2023-03-04T19:23:47.459Z,0.00
2023-03-04T19:26:15.499Z,-0.10
2023-03-04T19:28:42.945Z,-0.10
2023-03-04T19:31:11.445Z,-0.10
2023-03-04T19:33:39.895Z,-0.10
2023-03-04T19:36:08.318Z,-0.10
2023-03-04T19:38:35.958Z,0.20
2023-03-04T19:41:11.072Z,0.00
2023-03-04T19:43:39.273Z,-0.10
2023-03-04T19:46:08.666Z,0.00
2023-03-04T19:48:36.942Z,0.00
2023-03-04T19:51:05.033Z,0.00
2023-03-04T19:53:34.711Z,0.00
2023-03-04T19:56:01.780Z,0.00
2023-03-04T19:58:28.665Z,0.10
2023-03-04T20:00:56.226Z,0.10
2023-03-04T20:03:24.071Z,0.00
2023-03-04T20:05:50.868Z,0.00
2023-03-04T20:08:17.738Z,0.10
2023-03-04T20:10:44.612Z,0.10
2023-03-04T20:13:11.481Z,0.10
2023-03-04T20:15:42.459Z,0.10
2023-03-04T20:18:09.447Z,0.10
2023-03-04T20:20:38.490Z,0.10
2023-03-04T20:23:05.928Z,0.10
2023-03-04T20:25:32.798Z,0.10
2023-03-04T20:27:59.672Z,0.10
2023-03-04T20:30:26.351Z,0.10
2023-03-04T20:32:53.216Z,0.10
2023-03-04T20:35:20.101Z,0.10
2023-03-04T20:37:47.031Z,0.20
2023-03-04T20:40:14.040Z,0.20
2023-03-04T20:42:40.855Z,0.20
2023-03-04T20:45:08.125Z,0.20
2023-03-04T20:47:39.474Z,0.20
2023-03-04T20:50:07.015Z,0.20
2023-03-04T20:52:33.818Z,0.20
2023-03-04T20:55:00.601Z,0.20
2023-03-04T20:57:29.179Z,0.30
2023-03-04T20:59:56.010Z,0.20
2023-03-04T21:02:23.494Z,0.20
2023-03-04T21:04:50.447Z,0.20
2023-03-04T21:07:17.438Z,0.20
2023-03-04T21:09:45.823Z,0.20
2023-03-04T21:12:12.546Z,0.20
2023-03-04T21:14:40.133Z,0.20
2023-03-04T21:17:06.905Z,0.20
2023-03-04T21:19:36.452Z,0.30
2023-03-04T21:22:03.978Z,0.30
2023-03-04T21:24:33.456Z,0.30
2023-03-04T21:27:01.547Z,0.50
2023-03-04T21:29:28.546Z,0.20
2023-03-04T21:32:09.779Z,0.10
2023-03-04T21:34:48.372Z,0.10
2023-03-04T21:37:15.320Z,0.00
2023-03-04T21:39:42.068Z,1.10
2023-03-04T21:42:08.970Z,0.00
2023-03-04T21:44:48.726Z,0.10
2023-03-04T21:47:16.901Z,0.10
2023-03-04T21:49:43.817Z,0.10
2023-03-04T21:52:10.635Z,0.10
2023-03-04T21:54:37.434Z,0.10
2023-03-04T21:57:04.284Z,0.10
2023-03-04T21:59:31.184Z,0.20
2023-03-04T22:01:57.972Z,0.20
2023-03-04T22:04:24.861Z,0.20
2023-03-04T22:06:51.612Z,0.20
2023-03-04T22:09:18.428Z,0.20
2023-03-04T22:11:45.289Z,0.20
2023-03-04T22:14:12.429Z,0.10
2023-03-04T22:16:54.054Z,0.10
2023-03-04T22:19:22.728Z,0.10
2023-03-04T22:21:49.539Z,0.00
2023-03-04T22:24:16.306Z,0.00
2023-03-04T22:26:43.534Z,0.00
2023-03-04T22:29:10.475Z,0.00
2023-03-04T22:31:38.370Z,0.00
2023-03-04T22:34:08.013Z,0.00
2023-03-04T22:36:38.150Z,0.00
2023-03-04T22:39:07.241Z,0.00
2023-03-04T22:41:34.962Z,0.00
2023-03-04T22:44:02.078Z,0.00
2023-03-04T22:46:31.952Z,-0.10
2023-03-04T22:49:01.434Z,-0.10
2023-03-04T22:51:28.865Z,-0.10
2023-03-04T22:53:56.332Z,-0.10
2023-03-04T22:56:24.368Z,-0.10
2023-03-04T22:58:51.257Z,-0.10
2023-03-04T23:01:19.517Z,-0.30
2023-03-04T23:03:48.798Z,-0.10
2023-03-04T23:06:25.268Z,-0.20
2023-03-04T23:08:52.827Z,-0.30
2023-03-04T23:11:29.300Z,-0.20
2023-03-04T23:13:57.108Z,-0.20
2023-03-04T23:16:25.294Z,-0.10
2023-03-04T23:18:53.240Z,-0.10
2023-03-04T23:21:25.608Z,0.00
2023-03-04T23:23:52.910Z,0.10
2023-03-04T23:26:22.604Z,0.10
2023-03-04T23:28:50.679Z,0.10
2023-03-04T23:31:18.876Z,0.10
2023-03-04T23:33:47.764Z,0.10
2023-03-04T23:36:17.961Z,0.20
2023-03-04T23:38:47.057Z,0.10
2023-03-04T23:41:22.374Z,0.10
2023-03-04T23:43:51.233Z,0.10
2023-03-04T23:46:18.518Z,0.10
2023-03-04T23:48:46.532Z,0.10
2023-03-04T23:51:19.557Z,0.10
2023-03-04T23:53:46.880Z,0.00
2023-03-04T23:56:16.068Z,0.00
2023-03-04T23:58:43.808Z,0.00
